sensor_id;sensor_type;location;lat;lon;timestamp;pressure;altitude;pressure_sealevel;temperature;humidity
12777;BME280;6452;41.572;23.732;2023-10-19T00:00:55;66568.44;;;0.48;nan
12777;BME280;6452;41.572;23.732;2023-10-19T00:03:25;66557.75;;;0.48;nan
12777;BME280;6452;41.572;23.732;2023-10-19T00:05:52;66559.28;;;0.48;nan
12777;BME280;6452;41.572;23.732;2023-10-19T00:08:21;66550.13;;;0.48;nan
12777;BME280;6452;41.572;23.732;2023-10-19T00:10:50;66548.59;;;0.48;nan
12777;BME280;6452;41.572;23.732;2023-10-19T00:13:30;66551.66;;;0.48;nan
12777;BME280;6452;41.572;23.732;2023-10-19T00:15:57;66548.59;;;0.48;nan
12777;BME280;6452;41.572;23.732;2023-10-19T00:18:24;66548.59;;;0.48;nan
12777;BME280;6452;41.572;23.732;2023-10-19T00:20:52;66540.97;;;0.48;nan
12777;BME280;6452;41.572;23.732;2023-10-19T00:23:23;66553.16;;;0.48;nan
12777;BME280;6452;41.572;23.732;2023-10-19T00:26:00;66571.47;;;0.48;nan
12777;BME280;6452;41.572;23.732;2023-10-19T00:28:34;66588.28;;;0.48;nan
12777;BME280;6452;41.572;23.732;2023-10-19T00:31:02;66589.78;;;0.48;nan
12777;BME280;6452;41.572;23.732;2023-10-19T00:33:34;66602.00;;;0.48;nan
12777;BME280;6452;41.572;23.732;2023-10-19T00:36:09;66605.06;;;0.48;nan
12777;BME280;6452;41.572;23.732;2023-10-19T00:38:41;66602.00;;;0.48;nan
12777;BME280;6452;41.572;23.732;2023-10-19T00:41:25;66609.63;;;0.48;nan
12777;BME280;6452;41.572;23.732;2023-10-19T00:44:14;66591.31;;;0.48;nan
12777;BME280;6452;41.572;23.732;2023-10-19T00:46:43;66597.41;;;0.48;nan
12777;BME280;6452;41.572;23.732;2023-10-19T00:49:15;66602.00;;;0.48;nan
12777;BME280;6452;41.572;23.732;2023-10-19T00:51:48;66597.41;;;0.48;nan
12777;BME280;6452;41.572;23.732;2023-10-19T00:54:25;66585.22;;;0.48;nan
12777;BME280;6452;41.572;23.732;2023-10-19T00:57:12;66594.38;;;0.48;nan
12777;BME280;6452;41.572;23.732;2023-10-19T00:59:40;66602.00;;;0.48;nan
12777;BME280;6452;41.572;23.732;2023-10-19T01:02:17;66592.84;;;0.48;nan
12777;BME280;6452;41.572;23.732;2023-10-19T01:04:48;66600.47;;;0.48;nan
12777;BME280;6452;41.572;23.732;2023-10-19T01:07:33;66620.31;;;0.48;nan
12777;BME280;6452;41.572;23.732;2023-10-19T01:10:10;66620.31;;;0.48;nan
12777;BME280;6452;41.572;23.732;2023-10-19T01:12:47;66623.38;;;0.48;nan
12777;BME280;6452;41.572;23.732;2023-10-19T01:15:15;66617.25;;;0.48;nan
12777;BME280;6452;41.572;23.732;2023-10-19T01:17:51;66620.31;;;0.48;nan
12777;BME280;6452;41.572;23.732;2023-10-19T01:20:24;66620.31;;;0.48;nan
12777;BME280;6452;41.572;23.732;2023-10-19T01:26:05;66605.06;;;0.48;nan
12777;BME280;6452;41.572;23.732;2023-10-19T01:28:37;66594.38;;;0.48;nan
12777;BME280;6452;41.572;23.732;2023-10-19T01:31:07;66589.78;;;0.48;nan
12777;BME280;6452;41.572;23.732;2023-10-19T01:33:33;66602.00;;;0.48;nan
12777;BME280;6452;41.572;23.732;2023-10-19T01:36:01;66598.94;;;0.48;nan
12777;BME280;6452;41.572;23.732;2023-10-19T01:38:45;66605.06;;;0.48;nan
12777;BME280;6452;41.572;23.732;2023-10-19T01:41:13;66620.31;;;0.48;nan
12777;BME280;6452;41.572;23.732;2023-10-19T01:43:50;66620.31;;;0.48;nan
12777;BME280;6452;41.572;23.732;2023-10-19T01:46:17;66620.31;;;0.48;nan
12777;BME280;6452;41.572;23.732;2023-10-19T01:48:53;66621.84;;;0.48;nan
12777;BME280;6452;41.572;23.732;2023-10-19T01:51:25;66614.22;;;0.48;nan
12777;BME280;6452;41.572;23.732;2023-10-19T01:53:53;66614.22;;;0.48;nan
12777;BME280;6452;41.572;23.732;2023-10-19T01:56:21;66608.09;;;0.48;nan
12777;BME280;6452;41.572;23.732;2023-10-19T01:58:48;66605.06;;;0.48;nan
12777;BME280;6452;41.572;23.732;2023-10-19T02:01:22;66617.25;;;0.48;nan
12777;BME280;6452;41.572;23.732;2023-10-19T02:03:52;66624.88;;;0.48;nan
12777;BME280;6452;41.572;23.732;2023-10-19T02:06:25;66624.88;;;0.48;nan
12777;BME280;6452;41.572;23.732;2023-10-19T02:09:09;66629.47;;;0.48;nan
12777;BME280;6452;41.572;23.732;2023-10-19T02:11:44;66611.16;;;0.48;nan
12777;BME280;6452;41.572;23.732;2023-10-19T02:14:30;66618.78;;;0.49;nan
12777;BME280;6452;41.572;23.732;2023-10-19T02:16:58;66618.78;;;0.48;nan
12777;BME280;6452;41.572;23.732;2023-10-19T02:19:26;66624.88;;;0.48;nan
12777;BME280;6452;41.572;23.732;2023-10-19T02:21:55;66623.38;;;0.48;nan
12777;BME280;6452;41.572;23.732;2023-10-19T02:24:22;66629.47;;;0.48;nan
12777;BME280;6452;41.572;23.732;2023-10-19T02:26:53;66626.41;;;0.48;nan
12777;BME280;6452;41.572;23.732;2023-10-19T02:29:19;66629.47;;;0.49;nan
12777;BME280;6452;41.572;23.732;2023-10-19T02:31:47;66638.63;;;0.48;nan
12777;BME280;6452;41.572;23.732;2023-10-19T02:34:14;66634.03;;;0.48;nan
12777;BME280;6452;41.572;23.732;2023-10-19T02:36:44;66626.41;;;0.48;nan
12777;BME280;6452;41.572;23.732;2023-10-19T02:39:11;66629.47;;;0.48;nan
12777;BME280;6452;41.572;23.732;2023-10-19T02:41:41;66623.38;;;0.48;nan
12777;BME280;6452;41.572;23.732;2023-10-19T02:44:12;66620.31;;;0.48;nan
12777;BME280;6452;41.572;23.732;2023-10-19T02:46:54;66621.84;;;0.48;nan
12777;BME280;6452;41.572;23.732;2023-10-19T02:49:25;66641.69;;;0.48;nan
12777;BME280;6452;41.572;23.732;2023-10-19T02:51:52;66620.31;;;0.48;nan
12777;BME280;6452;41.572;23.732;2023-10-19T02:54:23;66605.06;;;0.48;nan
12777;BME280;6452;41.572;23.732;2023-10-19T02:56:51;66611.16;;;0.48;nan
12777;BME280;6452;41.572;23.732;2023-10-19T02:59:20;66603.53;;;0.48;nan
12777;BME280;6452;41.572;23.732;2023-10-19T03:01:54;66605.06;;;0.48;nan
12777;BME280;6452;41.572;23.732;2023-10-19T03:04:27;66602.00;;;0.48;nan
12777;BME280;6452;41.572;23.732;2023-10-19T03:06:57;66597.41;;;0.48;nan
12777;BME280;6452;41.572;23.732;2023-10-19T03:09:23;66591.31;;;0.48;nan
12777;BME280;6452;41.572;23.732;2023-10-19T03:11:52;66595.91;;;0.48;nan
12777;BME280;6452;41.572;23.732;2023-10-19T03:14:19;66592.84;;;0.48;nan
12777;BME280;6452;41.572;23.732;2023-10-19T03:16:45;66588.28;;;0.48;nan
12777;BME280;6452;41.572;23.732;2023-10-19T03:19:11;66598.94;;;0.48;nan
12777;BME280;6452;41.572;23.732;2023-10-19T03:21:41;66592.84;;;0.48;nan
12777;BME280;6452;41.572;23.732;2023-10-19T03:24:14;66580.63;;;0.48;nan
12777;BME280;6452;41.572;23.732;2023-10-19T03:27:05;66580.63;;;0.48;nan
12777;BME280;6452;41.572;23.732;2023-10-19T03:29:39;66577.59;;;0.48;nan
12777;BME280;6452;41.572;23.732;2023-10-19T03:32:06;66577.59;;;0.48;nan
12777;BME280;6452;41.572;23.732;2023-10-19T03:34:34;66566.91;;;0.48;nan
12777;BME280;6452;41.572;23.732;2023-10-19T03:37:02;66554.69;;;0.48;nan
12777;BME280;6452;41.572;23.732;2023-10-19T03:39:50;66560.81;;;0.48;nan
12777;BME280;6452;41.572;23.732;2023-10-19T03:42:18;66565.38;;;0.48;nan
12777;BME280;6452;41.572;23.732;2023-10-19T03:44:46;66557.75;;;0.48;nan
12777;BME280;6452;41.572;23.732;2023-10-19T03:47:13;66545.53;;;0.48;nan
12777;BME280;6452;41.572;23.732;2023-10-19T03:49:46;66537.91;;;0.48;nan
12777;BME280;6452;41.572;23.732;2023-10-19T03:52:13;66536.38;;;0.48;nan
12777;BME280;6452;41.572;23.732;2023-10-19T03:54:40;66537.91;;;0.48;nan
12777;BME280;6452;41.572;23.732;2023-10-19T03:57:08;66547.06;;;0.48;nan
12777;BME280;6452;41.572;23.732;2023-10-19T03:59:55;66547.06;;;0.48;nan
12777;BME280;6452;41.572;23.732;2023-10-19T04:02:23;66566.91;;;0.48;nan
12777;BME280;6452;41.572;23.732;2023-10-19T04:04:50;66565.38;;;0.48;nan
12777;BME280;6452;41.572;23.732;2023-10-19T04:07:18;66574.53;;;0.48;nan
12777;BME280;6452;41.572;23.732;2023-10-19T04:09:52;66568.44;;;0.48;nan
12777;BME280;6452;41.572;23.732;2023-10-19T04:12:34;66562.31;;;0.48;nan
12777;BME280;6452;41.572;23.732;2023-10-19T04:15:07;66563.84;;;0.48;nan
12777;BME280;6452;41.572;23.732;2023-10-19T04:17:40;66573.00;;;0.48;nan
12777;BME280;6452;41.572;23.732;2023-10-19T04:20:09;66589.78;;;0.48;nan
12777;BME280;6452;41.572;23.732;2023-10-19T04:22:49;66583.69;;;0.48;nan
12777;BME280;6452;41.572;23.732;2023-10-19T04:25:18;66586.75;;;0.48;nan
12777;BME280;6452;41.572;23.732;2023-10-19T04:27:45;66580.63;;;0.48;nan
12777;BME280;6452;41.572;23.732;2023-10-19T04:30:13;66586.75;;;0.48;nan
12777;BME280;6452;41.572;23.732;2023-10-19T04:32:45;66595.91;;;0.48;nan
12777;BME280;6452;41.572;23.732;2023-10-19T04:35:12;66606.56;;;0.48;nan
12777;BME280;6452;41.572;23.732;2023-10-19T04:37:50;66605.06;;;0.48;nan
12777;BME280;6452;41.572;23.732;2023-10-19T04:40:18;66611.16;;;0.48;nan
12777;BME280;6452;41.572;23.732;2023-10-19T04:42:46;66598.94;;;0.48;nan
12777;BME280;6452;41.572;23.732;2023-10-19T04:45:12;66600.47;;;0.48;nan
12777;BME280;6452;41.572;23.732;2023-10-19T04:47:43;66605.06;;;0.49;nan
12777;BME280;6452;41.572;23.732;2023-10-19T04:50:10;66614.22;;;0.48;nan
12777;BME280;6452;41.572;23.732;2023-10-19T04:52:37;66605.06;;;0.48;nan
12777;BME280;6452;41.572;23.732;2023-10-19T04:55:04;66598.94;;;0.48;nan
12777;BME280;6452;41.572;23.732;2023-10-19T04:57:32;66592.84;;;0.48;nan
12777;BME280;6452;41.572;23.732;2023-10-19T04:59:58;66594.38;;;0.48;nan
12777;BME280;6452;41.572;23.732;2023-10-19T05:02:26;66582.16;;;0.48;nan
12777;BME280;6452;41.572;23.732;2023-10-19T05:04:52;66594.38;;;0.48;nan
12777;BME280;6452;41.572;23.732;2023-10-19T05:07:19;66588.28;;;0.48;nan
12777;BME280;6452;41.572;23.732;2023-10-19T05:09:46;66605.06;;;0.48;nan
12777;BME280;6452;41.572;23.732;2023-10-19T05:12:13;66602.00;;;0.48;nan
12777;BME280;6452;41.572;23.732;2023-10-19T05:14:41;66608.09;;;0.48;nan
12777;BME280;6452;41.572;23.732;2023-10-19T05:17:08;66594.38;;;0.48;nan
12777;BME280;6452;41.572;23.732;2023-10-19T05:19:39;66582.16;;;0.48;nan
12777;BME280;6452;41.572;23.732;2023-10-19T05:22:09;66574.53;;;0.48;nan
12777;BME280;6452;41.572;23.732;2023-10-19T05:24:36;66582.16;;;0.48;nan
12777;BME280;6452;41.572;23.732;2023-10-19T05:27:02;66582.16;;;0.48;nan
12777;BME280;6452;41.572;23.732;2023-10-19T05:29:32;66586.75;;;0.48;nan
12777;BME280;6452;41.572;23.732;2023-10-19T05:31:59;66579.13;;;0.48;nan
12777;BME280;6452;41.572;23.732;2023-10-19T05:34:26;66579.13;;;0.48;nan
12777;BME280;6452;41.572;23.732;2023-10-19T05:36:54;66565.38;;;0.48;nan
12777;BME280;6452;41.572;23.732;2023-10-19T05:39:24;66556.22;;;0.48;nan
12777;BME280;6452;41.572;23.732;2023-10-19T05:41:54;66534.88;;;0.48;nan
12777;BME280;6452;41.572;23.732;2023-10-19T05:44:22;66539.44;;;0.48;nan
12777;BME280;6452;41.572;23.732;2023-10-19T05:46:50;66556.22;;;0.48;nan
12777;BME280;6452;41.572;23.732;2023-10-19T05:49:17;66548.59;;;0.48;nan
12777;BME280;6452;41.572;23.732;2023-10-19T05:51:44;66540.97;;;0.48;nan
12777;BME280;6452;41.572;23.732;2023-10-19T05:54:11;66528.75;;;0.48;nan
12777;BME280;6452;41.572;23.732;2023-10-19T05:56:38;66522.66;;;0.48;nan
12777;BME280;6452;41.572;23.732;2023-10-19T05:59:04;66527.22;;;0.48;nan
12777;BME280;6452;41.572;23.732;2023-10-19T06:01:32;66530.28;;;0.48;nan
12777;BME280;6452;41.572;23.732;2023-10-19T06:03:59;66534.88;;;0.48;nan
12777;BME280;6452;41.572;23.732;2023-10-19T06:06:26;66531.81;;;0.48;nan
12777;BME280;6452;41.572;23.732;2023-10-19T06:08:56;66501.28;;;0.48;nan
12777;BME280;6452;41.572;23.732;2023-10-19T06:11:23;66516.56;;;0.48;nan
12777;BME280;6452;41.572;23.732;2023-10-19T06:13:54;66498.25;;;0.48;nan
12777;BME280;6452;41.572;23.732;2023-10-19T06:16:20;66482.97;;;0.48;nan
12777;BME280;6452;41.572;23.732;2023-10-19T06:18:47;66482.97;;;0.48;nan
12777;BME280;6452;41.572;23.732;2023-10-19T06:21:17;66463.16;;;0.48;nan
12777;BME280;6452;41.572;23.732;2023-10-19T06:23:45;66454.00;;;0.48;nan
12777;BME280;6452;41.572;23.732;2023-10-19T06:26:11;66441.78;;;0.48;nan
12777;BME280;6452;41.572;23.732;2023-10-19T06:28:39;66414.31;;;0.48;nan
12777;BME280;6452;41.572;23.732;2023-10-19T06:31:06;66409.75;;;0.48;nan
12777;BME280;6452;41.572;23.732;2023-10-19T06:33:33;66399.06;;;0.48;nan
12777;BME280;6452;41.572;23.732;2023-10-19T06:35:59;66374.66;;;0.48;nan
12777;BME280;6452;41.572;23.732;2023-10-19T06:38:32;66357.84;;;0.48;nan
12777;BME280;6452;41.572;23.732;2023-10-19T06:41:01;66351.75;;;0.48;nan
12777;BME280;6452;41.572;23.732;2023-10-19T06:43:29;66342.59;;;0.47;nan
12777;BME280;6452;41.572;23.732;2023-10-19T06:45:56;66341.06;;;0.47;nan
12777;BME280;6452;41.572;23.732;2023-10-19T06:48:23;66325.81;;;0.47;nan
12777;BME280;6452;41.572;23.732;2023-10-19T06:50:49;66333.44;;;0.47;nan
12777;BME280;6452;41.572;23.732;2023-10-19T06:53:16;66333.44;;;0.47;nan
12777;BME280;6452;41.572;23.732;2023-10-19T06:55:43;66328.88;;;0.47;nan
12777;BME280;6452;41.572;23.732;2023-10-19T06:58:10;66330.41;;;0.47;nan
12777;BME280;6452;41.572;23.732;2023-10-19T07:00:38;66322.75;;;0.47;nan
12777;BME280;6452;41.572;23.732;2023-10-19T07:03:11;66301.41;;;0.47;nan
12777;BME280;6452;41.572;23.732;2023-10-19T07:05:38;66305.97;;;0.47;nan
12777;BME280;6452;41.572;23.732;2023-10-19T07:08:04;66302.94;;;0.47;nan
12777;BME280;6452;41.572;23.732;2023-10-19T07:10:32;66269.34;;;0.47;nan
12777;BME280;6452;41.572;23.732;2023-10-19T07:13:00;66270.88;;;0.47;nan
12777;BME280;6452;41.572;23.732;2023-10-19T07:15:27;66226.63;;;0.47;nan
12777;BME280;6452;41.572;23.732;2023-10-19T07:17:55;66225.09;;;0.47;nan
12777;BME280;6452;41.572;23.732;2023-10-19T07:20:22;66232.75;;;0.47;nan
12777;BME280;6452;41.572;23.732;2023-10-19T07:22:53;66229.69;;;0.47;nan
12777;BME280;6452;41.572;23.732;2023-10-19T07:25:22;66237.31;;;0.47;nan
12777;BME280;6452;41.572;23.732;2023-10-19T07:27:54;66223.59;;;0.47;nan
12777;BME280;6452;41.572;23.732;2023-10-19T07:30:21;66215.94;;;0.47;nan
12777;BME280;6452;41.572;23.732;2023-10-19T07:32:48;66212.91;;;0.47;nan
12777;BME280;6452;41.572;23.732;2023-10-19T07:35:24;66164.06;;;0.47;nan
12777;BME280;6452;41.572;23.732;2023-10-19T07:37:52;66128.97;;;0.47;nan
12777;BME280;6452;41.572;23.732;2023-10-19T07:40:19;66106.09;;;0.47;nan
12777;BME280;6452;41.572;23.732;2023-10-19T07:42:46;66113.72;;;0.47;nan
12777;BME280;6452;41.572;23.732;2023-10-19T07:45:15;66099.97;;;0.47;nan
12777;BME280;6452;41.572;23.732;2023-10-19T07:47:42;66119.81;;;0.47;nan
12777;BME280;6452;41.572;23.732;2023-10-19T07:50:09;66112.19;;;0.47;nan
12777;BME280;6452;41.572;23.732;2023-10-19T07:52:51;66144.22;;;0.47;nan
12777;BME280;6452;41.572;23.732;2023-10-19T07:55:22;66156.44;;;0.47;nan
12777;BME280;6452;41.572;23.732;2023-10-19T07:57:52;66128.97;;;0.47;nan
12777;BME280;6452;41.572;23.732;2023-10-19T08:00:19;66113.72;;;0.47;nan
12777;BME280;6452;41.572;23.732;2023-10-19T08:02:46;66075.56;;;0.47;nan
12777;BME280;6452;41.572;23.732;2023-10-19T08:05:13;66029.78;;;0.47;nan
12777;BME280;6452;41.572;23.732;2023-10-19T08:07:39;66016.06;;;0.46;nan
12777;BME280;6452;41.572;23.732;2023-10-19T08:10:11;65958.06;;;0.46;nan
12777;BME280;6452;41.572;23.732;2023-10-19T08:12:39;66000.81;;;0.47;nan
12777;BME280;6452;41.572;23.732;2023-10-19T08:15:08;65991.66;;;0.46;nan
12777;BME280;6452;41.572;23.732;2023-10-19T08:17:41;65968.75;;;0.46;nan
12777;BME280;6452;41.572;23.732;2023-10-19T08:20:09;65930.59;;;0.46;nan
12777;BME280;6452;41.572;23.732;2023-10-19T08:22:42;65927.56;;;0.46;nan
12777;BME280;6452;41.572;23.732;2023-10-19T08:25:09;65916.88;;;0.46;nan
12777;BME280;6452;41.572;23.732;2023-10-19T08:27:41;65904.66;;;0.46;nan
12777;BME280;6452;41.572;23.732;2023-10-19T08:30:11;65947.41;;;0.46;nan
12777;BME280;6452;41.572;23.732;2023-10-19T08:32:41;65892.47;;;0.46;nan
12777;BME280;6452;41.572;23.732;2023-10-19T08:35:09;65808.53;;;0.46;nan
12777;BME280;6452;41.572;23.732;2023-10-19T08:37:41;65678.84;;;0.46;nan
12777;BME280;6452;41.572;23.732;2023-10-19T08:40:11;65735.28;;;0.46;nan
12777;BME280;6452;41.572;23.732;2023-10-19T08:42:42;65723.09;;;0.46;nan
12777;BME280;6452;41.572;23.732;2023-10-19T08:45:09;65727.66;;;0.46;nan
12777;BME280;6452;41.572;23.732;2023-10-19T08:47:45;65720.03;;;0.46;nan
12777;BME280;6452;41.572;23.732;2023-10-19T08:50:16;65717.00;;;0.46;nan
12777;BME280;6452;41.572;23.732;2023-10-19T08:52:52;65625.44;;;0.45;nan
12777;BME280;6452;41.572;23.732;2023-10-19T08:55:19;65570.50;;;0.45;nan
12777;BME280;6452;41.572;23.732;2023-10-19T08:57:50;65515.56;;;0.45;nan
12777;BME280;6452;41.572;23.732;2023-10-19T09:00:19;65581.19;;;0.45;nan
12777;BME280;6452;41.572;23.732;2023-10-19T09:03:10;65587.28;;;0.45;nan
12777;BME280;6452;41.572;23.732;2023-10-19T09:05:40;65553.72;;;0.45;nan
12777;BME280;6452;41.572;23.732;2023-10-19T09:08:06;65607.13;;;0.45;nan
12777;BME280;6452;41.572;23.732;2023-10-19T09:10:35;65680.38;;;0.46;nan
12777;BME280;6452;41.572;23.732;2023-10-19T09:13:04;65678.84;;;0.46;nan
12777;BME280;6452;41.572;23.732;2023-10-19T09:15:33;65573.56;;;0.45;nan
12777;BME280;6452;41.572;23.732;2023-10-19T09:20:41;65433.16;;;0.45;nan
12777;BME280;6452;41.572;23.732;2023-10-19T09:23:30;65424.00;;;0.45;nan
12777;BME280;6452;41.572;23.732;2023-10-19T09:25:58;65288.22;;;0.44;nan
12777;BME280;6452;41.572;23.732;2023-10-19T09:28:24;65335.50;;;0.45;nan
12777;BME280;6452;41.572;23.732;2023-10-19T09:30:51;65402.66;;;0.45;nan
12777;BME280;6452;41.572;23.732;2023-10-19T09:33:18;65440.81;;;0.45;nan
12777;BME280;6452;41.572;23.732;2023-10-19T09:35:48;65501.84;;;0.45;nan
12777;BME280;6452;41.572;23.732;2023-10-19T09:38:16;65454.53;;;0.45;nan
12777;BME280;6452;41.572;23.732;2023-10-19T09:40:49;65465.22;;;0.45;nan
12777;BME280;6452;41.572;23.732;2023-10-19T09:43:16;65546.09;;;0.45;nan
12777;BME280;6452;41.572;23.732;2023-10-19T09:45:51;65533.88;;;0.45;nan
12777;BME280;6452;41.572;23.732;2023-10-19T09:48:19;65500.31;;;0.45;nan
12777;BME280;6452;41.572;23.732;2023-10-19T09:50:55;65547.63;;;0.45;nan
12777;BME280;6452;41.572;23.732;2023-10-19T09:53:45;65517.09;;;0.45;nan
12777;BME280;6452;41.572;23.732;2023-10-19T09:56:20;65388.91;;;0.45;nan
12777;BME280;6452;41.572;23.732;2023-10-19T09:58:53;65448.44;;;0.45;nan
12777;BME280;6452;41.572;23.732;2023-10-19T10:01:21;65420.97;;;0.45;nan
12777;BME280;6452;41.572;23.732;2023-10-19T10:03:54;65498.78;;;0.45;nan
12777;BME280;6452;41.572;23.732;2023-10-19T10:09:20;65549.13;;;0.45;nan
12777;BME280;6452;41.572;23.732;2023-10-19T10:11:53;65514.03;;;0.45;nan
12777;BME280;6452;41.572;23.732;2023-10-19T10:14:23;65570.50;;;0.45;nan
12777;BME280;6452;41.572;23.732;2023-10-19T10:19:27;65497.25;;;0.45;nan
12777;BME280;6452;41.572;23.732;2023-10-19T10:22:22;65556.78;;;0.45;nan
12777;BME280;6452;41.572;23.732;2023-10-19T10:24:54;65523.19;;;0.45;nan
12777;BME280;6452;41.572;23.732;2023-10-19T10:27:23;65524.72;;;0.45;nan
12777;BME280;6452;41.572;23.732;2023-10-19T10:30:00;65561.34;;;0.45;nan
12777;BME280;6452;41.572;23.732;2023-10-19T10:32:51;65543.03;;;0.45;nan
12777;BME280;6452;41.572;23.732;2023-10-19T10:38:10;65573.56;;;0.45;nan
12777;BME280;6452;41.572;23.732;2023-10-19T10:40:47;65533.88;;;0.45;nan
12777;BME280;6452;41.572;23.732;2023-10-19T10:43:14;65469.78;;;0.45;nan
12777;BME280;6452;41.572;23.732;2023-10-19T10:45:41;65430.13;;;0.45;nan
12777;BME280;6452;41.572;23.732;2023-10-19T10:48:14;65398.06;;;0.45;nan
12777;BME280;6452;41.572;23.732;2023-10-19T10:50:41;65402.66;;;0.45;nan
12777;BME280;6452;41.572;23.732;2023-10-19T10:53:08;65443.84;;;0.45;nan
12777;BME280;6452;41.572;23.732;2023-10-19T10:55:37;65448.44;;;0.45;nan
12777;BME280;6452;41.572;23.732;2023-10-19T10:58:04;65475.91;;;0.45;nan
12777;BME280;6452;41.572;23.732;2023-10-19T11:00:30;65498.78;;;0.45;nan
12777;BME280;6452;41.572;23.732;2023-10-19T11:03:07;65488.09;;;0.45;nan
12777;BME280;6452;41.572;23.732;2023-10-19T11:05:34;65451.47;;;0.45;nan
12777;BME280;6452;41.572;23.732;2023-10-19T11:08:08;65477.41;;;0.45;nan
12777;BME280;6452;41.572;23.732;2023-10-19T11:10:35;65485.06;;;0.45;nan
12777;BME280;6452;41.572;23.732;2023-10-19T11:13:04;65489.63;;;0.45;nan
12777;BME280;6452;41.572;23.732;2023-10-19T11:15:32;65488.09;;;0.45;nan
12777;BME280;6452;41.572;23.732;2023-10-19T11:17:58;65436.22;;;0.45;nan
12777;BME280;6452;41.572;23.732;2023-10-19T11:20:25;65388.91;;;0.45;nan
12777;BME280;6452;41.572;23.732;2023-10-19T11:22:54;65428.59;;;0.45;nan
12777;BME280;6452;41.572;23.732;2023-10-19T11:25:27;65381.28;;;0.45;nan
12777;BME280;6452;41.572;23.732;2023-10-19T11:27:57;65366.03;;;0.45;nan
12777;BME280;6452;41.572;23.732;2023-10-19T11:30:29;65384.34;;;0.45;nan
12777;BME280;6452;41.572;23.732;2023-10-19T11:32:58;65372.13;;;0.45;nan
12777;BME280;6452;41.572;23.732;2023-10-19T11:35:29;65385.88;;;0.45;nan
12777;BME280;6452;41.572;23.732;2023-10-19T11:37:57;65172.25;;;0.44;nan
12777;BME280;6452;41.572;23.732;2023-10-19T11:40:25;65185.97;;;0.44;nan
12777;BME280;6452;41.572;23.732;2023-10-19T11:42:53;65150.88;;;0.44;nan
12777;BME280;6452;41.572;23.732;2023-10-19T11:45:22;64954.03;;;0.44;nan
12777;BME280;6452;41.572;23.732;2023-10-19T11:48:08;64845.69;;;0.43;nan
12777;BME280;6452;41.572;23.732;2023-10-19T11:50:35;64694.63;;;0.43;nan
12777;BME280;6452;41.572;23.732;2023-10-19T11:53:02;64635.13;;;0.43;nan
12777;BME280;6452;41.572;23.732;2023-10-19T11:55:31;64633.59;;;0.43;nan
12777;BME280;6452;41.572;23.732;2023-10-19T11:57:57;64642.75;;;0.43;nan
12777;BME280;6452;41.572;23.732;2023-10-19T12:00:24;64661.06;;;0.43;nan
12777;BME280;6452;41.572;23.732;2023-10-19T12:02:59;64554.25;;;0.43;nan
12777;BME280;6452;41.572;23.732;2023-10-19T12:05:26;64529.84;;;0.42;nan
12777;BME280;6452;41.572;23.732;2023-10-19T12:07:53;64535.94;;;0.42;nan
12777;BME280;6452;41.572;23.732;2023-10-19T12:10:20;64630.56;;;0.43;nan
12777;BME280;6452;41.572;23.732;2023-10-19T12:12:51;64642.75;;;0.43;nan
12777;BME280;6452;41.572;23.732;2023-10-19T12:15:18;64584.78;;;0.43;nan
12777;BME280;6452;41.572;23.732;2023-10-19T12:17:48;64487.13;;;0.42;nan
12777;BME280;6452;41.572;23.732;2023-10-19T12:20:17;64355.91;;;0.42;nan
12777;BME280;6452;41.572;23.732;2023-10-19T12:22:48;64619.88;;;0.43;nan
12777;BME280;6452;41.572;23.732;2023-10-19T12:25:18;64383.34;;;0.42;nan
12777;BME280;6452;41.572;23.732;2023-10-19T12:27:44;64334.53;;;0.42;nan
12777;BME280;6452;41.572;23.732;2023-10-19T12:30:15;64294.84;;;0.42;nan
12777;BME280;6452;41.572;23.732;2023-10-19T12:32:48;64247.56;;;0.42;nan
12777;BME280;6452;41.572;23.732;2023-10-19T12:35:18;64134.63;;;0.41;nan
12777;BME280;6452;41.572;23.732;2023-10-19T12:38:04;64140.75;;;0.41;nan
12777;BME280;6452;41.572;23.732;2023-10-19T12:40:32;64061.41;;;0.41;nan
12777;BME280;6452;41.572;23.732;2023-10-19T12:43:04;63997.31;;;0.41;nan
12777;BME280;6452;41.572;23.732;2023-10-19T12:45:33;64030.88;;;0.41;nan
12777;BME280;6452;41.572;23.732;2023-10-19T12:48:06;64044.63;;;0.41;nan
12777;BME280;6452;41.572;23.732;2023-10-19T12:50:37;63913.38;;;0.41;nan
12777;BME280;6452;41.572;23.732;2023-10-19T12:53:04;63898.13;;;0.41;nan
12777;BME280;6452;41.572;23.732;2023-10-19T12:55:30;63846.25;;;0.40;nan
12777;BME280;6452;41.572;23.732;2023-10-19T12:57:57;63901.19;;;0.41;nan
12777;BME280;6452;41.572;23.732;2023-10-19T13:00:26;63885.91;;;0.41;nan
12777;BME280;6452;41.572;23.732;2023-10-19T13:02:55;63785.22;;;0.40;nan
12777;BME280;6452;41.572;23.732;2023-10-19T13:05:33;63792.84;;;0.40;nan
12777;BME280;6452;41.572;23.732;2023-10-19T13:08:00;63641.78;;;0.40;nan
12777;BME280;6452;41.572;23.732;2023-10-19T13:10:31;63722.66;;;0.40;nan
12777;BME280;6452;41.572;23.732;2023-10-19T13:13:01;63779.09;;;0.40;nan
12777;BME280;6452;41.572;23.732;2023-10-19T13:15:34;63768.44;;;0.40;nan
12777;BME280;6452;41.572;23.732;2023-10-19T13:18:02;63818.78;;;0.40;nan
12777;BME280;6452;41.572;23.732;2023-10-19T13:20:29;63692.13;;;0.40;nan
12777;BME280;6452;41.572;23.732;2023-10-19T13:23:03;63733.34;;;0.40;nan
12777;BME280;6452;41.572;23.732;2023-10-19T13:25:49;63542.59;;;0.39;nan
12777;BME280;6452;41.572;23.732;2023-10-19T13:28:20;63626.53;;;0.40;nan
12777;BME280;6452;41.572;23.732;2023-10-19T13:30:52;63719.59;;;0.40;nan
12777;BME280;6452;41.572;23.732;2023-10-19T13:33:21;64026.31;;;0.41;nan
12777;BME280;6452;41.572;23.732;2023-10-19T13:35:48;64044.63;;;0.41;nan
12777;BME280;6452;41.572;23.732;2023-10-19T13:38:16;63850.81;;;0.40;nan
12777;BME280;6452;41.572;23.732;2023-10-19T13:40:43;63792.84;;;0.40;nan
12777;BME280;6452;41.572;23.732;2023-10-19T13:43:13;63782.16;;;0.40;nan
12777;BME280;6452;41.572;23.732;2023-10-19T13:45:40;63823.34;;;0.40;nan
12777;BME280;6452;41.572;23.732;2023-10-19T13:48:12;64065.97;;;0.41;nan
12777;BME280;6452;41.572;23.732;2023-10-19T13:50:44;63882.88;;;0.41;nan
12777;BME280;6452;41.572;23.732;2023-10-19T13:53:14;63760.78;;;0.40;nan
12777;BME280;6452;41.572;23.732;2023-10-19T13:55:41;63861.50;;;0.41;nan
12777;BME280;6452;41.572;23.732;2023-10-19T13:58:07;63873.72;;;0.41;nan
12777;BME280;6452;41.572;23.732;2023-10-19T14:00:35;63931.69;;;0.41;nan
12777;BME280;6452;41.572;23.732;2023-10-19T14:03:04;64082.75;;;0.41;nan